Terminal Aerodrome Forecast
Issued by NWS Sterling, VA

Current Version | Previous Version | Graphics & Text | Print | Product List | Glossary On
Versions: 1 2 3 4 5 6 7 8 9 10 11 12 13 14 15 16 17 18 19 20 21 22 23 24 25 26 27 28
000
FTUS41 KLWX 211854 AAA
TAFDCA
TAF AMD
KDCA 211854Z 2119/2218 05010KT 5SM -RA BR BKN007 OVC050
     FM212000 02006KT P6SM -DZ BKN007 BKN015
     FM220200 VRB05KT P6SM BKN040
     FM220500 32007KT P6SM SCT080
     FM221300 31014G21KT P6SM FEW250=

USA.gov is the U.S. government's official web portal to all federal, state and local government web resources and services.